sensor_id;sensor_type;location;lat;lon;timestamp;pressure;altitude;pressure_sealevel;temperature;humidity
21395;BME280;10858;42.714;23.180;2023-01-25T00:00:24;95497.13;;;3.29;76.58
21395;BME280;10858;42.714;23.180;2023-01-25T00:02:50;95498.16;;;3.26;76.98
21395;BME280;10858;42.714;23.180;2023-01-25T00:05:16;95492.94;;;3.25;76.48
21395;BME280;10858;42.714;23.180;2023-01-25T00:07:42;95497.94;;;3.31;76.44
21395;BME280;10858;42.714;23.180;2023-01-25T00:10:09;95502.09;;;3.36;76.41
21395;BME280;10858;42.714;23.180;2023-01-25T00:12:36;95495.53;;;3.26;76.71
21395;BME280;10858;42.714;23.180;2023-01-25T00:15:02;95502.84;;;3.18;77.24
21395;BME280;10858;42.714;23.180;2023-01-25T00:17:28;95505.22;;;3.24;76.91
21395;BME280;10858;42.714;23.180;2023-01-25T00:19:54;95500.06;;;3.01;77.46
21395;BME280;10858;42.714;23.180;2023-01-25T00:22:21;95509.44;;;3.07;77.30
21395;BME280;10858;42.714;23.180;2023-01-25T00:24:47;95510.13;;;3.12;77.25
21395;BME280;10858;42.714;23.180;2023-01-25T00:27:13;95512.53;;;2.96;77.94
21395;BME280;10858;42.714;23.180;2023-01-25T00:29:39;95497.22;;;3.27;77.07
21395;BME280;10858;42.714;23.180;2023-01-25T00:34:44;95504.81;;;3.13;76.67
21395;BME280;10858;42.714;23.180;2023-01-25T00:37:18;95504.94;;;3.10;76.83
21395;BME280;10858;42.714;23.180;2023-01-25T00:39:47;95498.88;;;2.88;77.06
21395;BME280;10858;42.714;23.180;2023-01-25T00:42:15;95503.47;;;3.03;77.10
21395;BME280;10858;42.714;23.180;2023-01-25T00:44:42;95507.47;;;2.92;77.39
21395;BME280;10858;42.714;23.180;2023-01-25T00:47:11;95502.25;;;3.12;77.12
21395;BME280;10858;42.714;23.180;2023-01-25T00:49:40;95507.53;;;2.90;76.96
21395;BME280;10858;42.714;23.180;2023-01-25T00:52:07;95508.25;;;2.94;77.51
21395;BME280;10858;42.714;23.180;2023-01-25T00:54:33;95508.50;;;2.88;76.66
21395;BME280;10858;42.714;23.180;2023-01-25T00:57:00;95501.50;;;2.88;77.38
21395;BME280;10858;42.714;23.180;2023-01-25T00:59:26;95511.69;;;3.16;76.69
21395;BME280;10858;42.714;23.180;2023-01-25T01:01:54;95504.53;;;2.99;76.17
21395;BME280;10858;42.714;23.180;2023-01-25T01:04:20;95499.38;;;3.18;76.23
21395;BME280;10858;42.714;23.180;2023-01-25T01:06:51;95508.88;;;3.20;76.00
21395;BME280;10858;42.714;23.180;2023-01-25T01:09:19;95501.25;;;2.94;76.52
21395;BME280;10858;42.714;23.180;2023-01-25T01:11:45;95498.63;;;2.94;76.79
21395;BME280;10858;42.714;23.180;2023-01-25T01:14:12;95501.91;;;2.99;76.77
21395;BME280;10858;42.714;23.180;2023-01-25T01:16:39;95501.00;;;3.00;76.59
21395;BME280;10858;42.714;23.180;2023-01-25T01:19:05;95496.28;;;3.08;76.47
21395;BME280;10858;42.714;23.180;2023-01-25T01:21:31;95497.09;;;3.30;75.96
21395;BME280;10858;42.714;23.180;2023-01-25T01:23:58;95493.13;;;3.00;76.47
21395;BME280;10858;42.714;23.180;2023-01-25T01:26:24;95503.47;;;3.03;76.33
21395;BME280;10858;42.714;23.180;2023-01-25T01:28:50;95495.88;;;2.97;76.59
21395;BME280;10858;42.714;23.180;2023-01-25T01:31:22;95492.75;;;3.09;76.43
21395;BME280;10858;42.714;23.180;2023-01-25T01:33:50;95480.88;;;3.21;75.78
21395;BME280;10858;42.714;23.180;2023-01-25T01:36:17;95489.00;;;3.15;75.97
21395;BME280;10858;42.714;23.180;2023-01-25T01:38:44;95471.25;;;3.21;75.46
21395;BME280;10858;42.714;23.180;2023-01-25T01:41:11;95475.84;;;3.36;75.48
21395;BME280;10858;42.714;23.180;2023-01-25T01:43:39;95482.53;;;3.43;75.01
21395;BME280;10858;42.714;23.180;2023-01-25T01:46:32;95482.69;;;3.40;74.71
21395;BME280;10858;42.714;23.180;2023-01-25T01:49:17;95477.16;;;3.47;74.35
21395;BME280;10858;42.714;23.180;2023-01-25T01:52:06;95483.19;;;3.28;74.98
21395;BME280;10858;42.714;23.180;2023-01-25T01:57:18;95470.09;;;3.28;75.23
21395;BME280;10858;42.714;23.180;2023-01-25T02:00:05;95483.72;;;2.95;76.06
21395;BME280;10858;42.714;23.180;2023-01-25T02:02:36;95482.00;;;3.15;75.80
21395;BME280;10858;42.714;23.180;2023-01-25T02:05:08;95486.44;;;3.13;75.22
21395;BME280;10858;42.714;23.180;2023-01-25T02:07:38;95481.81;;;3.20;75.04
21395;BME280;10858;42.714;23.180;2023-01-25T02:10:06;95478.84;;;3.07;75.37
21395;BME280;10858;42.714;23.180;2023-01-25T02:12:33;95485.13;;;2.62;76.49
21395;BME280;10858;42.714;23.180;2023-01-25T02:15:00;95480.84;;;2.59;76.83
21395;BME280;10858;42.714;23.180;2023-01-25T02:17:28;95476.53;;;2.80;76.94
21395;BME280;10858;42.714;23.180;2023-01-25T02:22:58;95482.19;;;2.69;76.91
21395;BME280;10858;42.714;23.180;2023-01-25T02:25:26;95482.38;;;2.86;76.29
21395;BME280;10858;42.714;23.180;2023-01-25T02:30:33;95479.31;;;2.75;75.86
21395;BME280;10858;42.714;23.180;2023-01-25T02:33:00;95481.94;;;2.75;76.26
21395;BME280;10858;42.714;23.180;2023-01-25T02:35:45;95472.97;;;2.81;75.91
21395;BME280;10858;42.714;23.180;2023-01-25T02:38:15;95475.19;;;2.70;76.77
21395;BME280;10858;42.714;23.180;2023-01-25T02:41:03;95464.22;;;2.82;76.57
21395;BME280;10858;42.714;23.180;2023-01-25T02:43:32;95461.84;;;2.76;76.71
21395;BME280;10858;42.714;23.180;2023-01-25T02:46:26;95466.69;;;2.85;76.37
21395;BME280;10858;42.714;23.180;2023-01-25T02:48:54;95469.88;;;2.71;76.49
21395;BME280;10858;42.714;23.180;2023-01-25T02:51:22;95469.09;;;2.69;75.74
21395;BME280;10858;42.714;23.180;2023-01-25T02:53:49;95478.53;;;2.51;76.37
21395;BME280;10858;42.714;23.180;2023-01-25T02:56:16;95465.69;;;2.67;76.54
21395;BME280;10858;42.714;23.180;2023-01-25T02:58:42;95467.19;;;2.51;76.50
21395;BME280;10858;42.714;23.180;2023-01-25T03:01:10;95473.44;;;2.70;75.98
21395;BME280;10858;42.714;23.180;2023-01-25T03:03:36;95473.50;;;2.89;75.60
21395;BME280;10858;42.714;23.180;2023-01-25T03:06:02;95471.31;;;3.00;74.82
21395;BME280;10858;42.714;23.180;2023-01-25T03:08:29;95468.09;;;3.13;74.26
21395;BME280;10858;42.714;23.180;2023-01-25T03:10:59;95459.59;;;3.08;74.17
21395;BME280;10858;42.714;23.180;2023-01-25T03:13:27;95464.69;;;3.11;74.55
21395;BME280;10858;42.714;23.180;2023-01-25T03:16:05;95467.50;;;3.07;74.35
21395;BME280;10858;42.714;23.180;2023-01-25T03:18:32;95463.25;;;3.04;74.10
21395;BME280;10858;42.714;23.180;2023-01-25T03:21:12;95463.47;;;3.20;74.28
21395;BME280;10858;42.714;23.180;2023-01-25T03:23:40;95467.22;;;3.34;73.93
21395;BME280;10858;42.714;23.180;2023-01-25T03:26:15;95459.34;;;3.34;73.38
21395;BME280;10858;42.714;23.180;2023-01-25T03:28:42;95464.59;;;3.34;73.70
21395;BME280;10858;42.714;23.180;2023-01-25T03:31:10;95468.19;;;3.32;73.80
21395;BME280;10858;42.714;23.180;2023-01-25T03:33:37;95463.47;;;3.40;73.70
21395;BME280;10858;42.714;23.180;2023-01-25T03:36:04;95466.94;;;3.40;73.76
21395;BME280;10858;42.714;23.180;2023-01-25T03:38:31;95465.75;;;3.27;74.36
21395;BME280;10858;42.714;23.180;2023-01-25T03:40:58;95463.28;;;3.44;73.79
21395;BME280;10858;42.714;23.180;2023-01-25T03:43:25;95455.25;;;3.47;73.43
21395;BME280;10858;42.714;23.180;2023-01-25T03:45:56;95461.44;;;3.47;73.18
21395;BME280;10858;42.714;23.180;2023-01-25T03:48:23;95456.97;;;3.49;73.16
21395;BME280;10858;42.714;23.180;2023-01-25T03:50:55;95457.75;;;3.51;73.37
21395;BME280;10858;42.714;23.180;2023-01-25T03:53:26;95460.38;;;3.51;73.26
21395;BME280;10858;42.714;23.180;2023-01-25T03:56:00;95451.84;;;3.45;72.77
21395;BME280;10858;42.714;23.180;2023-01-25T03:58:28;95453.88;;;3.39;73.35
21395;BME280;10858;42.714;23.180;2023-01-25T04:00:56;95454.22;;;3.31;73.62
21395;BME280;10858;42.714;23.180;2023-01-25T04:03:23;95449.69;;;3.35;73.49
21395;BME280;10858;42.714;23.180;2023-01-25T04:05:51;95453.09;;;3.37;73.28
21395;BME280;10858;42.714;23.180;2023-01-25T04:08:17;95442.94;;;3.29;73.09
21395;BME280;10858;42.714;23.180;2023-01-25T04:10:43;95445.44;;;3.32;73.37
21395;BME280;10858;42.714;23.180;2023-01-25T04:13:10;95452.97;;;3.20;73.76
21395;BME280;10858;42.714;23.180;2023-01-25T04:15:37;95443.00;;;3.08;73.71
21395;BME280;10858;42.714;23.180;2023-01-25T04:18:03;95446.00;;;3.39;73.56
21395;BME280;10858;42.714;23.180;2023-01-25T04:20:29;95451.91;;;3.44;73.09
21395;BME280;10858;42.714;23.180;2023-01-25T04:22:55;95448.53;;;3.22;73.04
21395;BME280;10858;42.714;23.180;2023-01-25T04:25:21;95445.91;;;3.22;73.71
21395;BME280;10858;42.714;23.180;2023-01-25T04:27:49;95444.25;;;3.39;73.38
21395;BME280;10858;42.714;23.180;2023-01-25T04:30:16;95445.97;;;3.40;72.82
21395;BME280;10858;42.714;23.180;2023-01-25T04:32:42;95450.00;;;3.47;72.89
21395;BME280;10858;42.714;23.180;2023-01-25T04:35:08;95442.84;;;3.51;72.76
21395;BME280;10858;42.714;23.180;2023-01-25T04:37:35;95444.75;;;3.47;72.23
21395;BME280;10858;42.714;23.180;2023-01-25T04:40:01;95458.28;;;3.38;73.15
21395;BME280;10858;42.714;23.180;2023-01-25T04:42:27;95452.63;;;3.47;72.33
21395;BME280;10858;42.714;23.180;2023-01-25T04:44:53;95460.91;;;3.38;72.72
21395;BME280;10858;42.714;23.180;2023-01-25T04:47:19;95454.53;;;3.44;72.95
21395;BME280;10858;42.714;23.180;2023-01-25T04:49:45;95451.22;;;3.40;73.02
21395;BME280;10858;42.714;23.180;2023-01-25T04:52:12;95456.31;;;3.43;72.75
21395;BME280;10858;42.714;23.180;2023-01-25T04:54:38;95452.78;;;3.24;73.07
21395;BME280;10858;42.714;23.180;2023-01-25T04:57:04;95460.13;;;3.36;72.93
21395;BME280;10858;42.714;23.180;2023-01-25T04:59:30;95456.97;;;3.28;72.69
21395;BME280;10858;42.714;23.180;2023-01-25T05:01:56;95461.44;;;3.26;72.84
21395;BME280;10858;42.714;23.180;2023-01-25T05:04:23;95456.50;;;3.39;72.48
21395;BME280;10858;42.714;23.180;2023-01-25T05:06:49;95450.44;;;3.18;72.64
21395;BME280;10858;42.714;23.180;2023-01-25T05:09:15;95460.25;;;3.33;72.82
21395;BME280;10858;42.714;23.180;2023-01-25T05:11:42;95454.66;;;3.41;72.37
21395;BME280;10858;42.714;23.180;2023-01-25T05:14:08;95460.84;;;3.40;72.40
21395;BME280;10858;42.714;23.180;2023-01-25T05:16:35;95449.81;;;3.52;72.37
21395;BME280;10858;42.714;23.180;2023-01-25T05:19:01;95443.34;;;3.40;72.71
21395;BME280;10858;42.714;23.180;2023-01-25T05:21:27;95448.84;;;3.34;72.88
21395;BME280;10858;42.714;23.180;2023-01-25T05:24:12;95445.09;;;3.20;73.01
21395;BME280;10858;42.714;23.180;2023-01-25T05:26:38;95444.69;;;3.09;73.61
21395;BME280;10858;42.714;23.180;2023-01-25T05:29:22;95441.09;;;3.31;73.20
21395;BME280;10858;42.714;23.180;2023-01-25T05:31:49;95440.31;;;3.50;72.87
21395;BME280;10858;42.714;23.180;2023-01-25T05:34:15;95445.69;;;3.47;72.56
21395;BME280;10858;42.714;23.180;2023-01-25T05:36:41;95450.94;;;3.47;72.98
21395;BME280;10858;42.714;23.180;2023-01-25T05:39:07;95445.81;;;3.43;72.91
21395;BME280;10858;42.714;23.180;2023-01-25T05:41:34;95445.44;;;3.53;71.98
21395;BME280;10858;42.714;23.180;2023-01-25T05:44:00;95452.56;;;3.29;72.48
21395;BME280;10858;42.714;23.180;2023-01-25T05:46:27;95447.06;;;3.35;72.22
21395;BME280;10858;42.714;23.180;2023-01-25T05:48:53;95455.16;;;3.30;73.13
21395;BME280;10858;42.714;23.180;2023-01-25T05:51:19;95461.44;;;3.47;72.63
21395;BME280;10858;42.714;23.180;2023-01-25T05:53:45;95458.47;;;3.54;72.22
21395;BME280;10858;42.714;23.180;2023-01-25T05:56:11;95457.09;;;3.45;71.88
21395;BME280;10858;42.714;23.180;2023-01-25T05:58:38;95456.31;;;3.43;72.34
21395;BME280;10858;42.714;23.180;2023-01-25T06:01:06;95462.06;;;3.52;72.32
21395;BME280;10858;42.714;23.180;2023-01-25T06:03:33;95461.78;;;3.58;72.65
21395;BME280;10858;42.714;23.180;2023-01-25T06:06:00;95459.47;;;3.31;72.00
21395;BME280;10858;42.714;23.180;2023-01-25T06:08:31;95457.88;;;3.47;72.67
21395;BME280;10858;42.714;23.180;2023-01-25T06:10:57;95464.50;;;3.56;72.26
21395;BME280;10858;42.714;23.180;2023-01-25T06:13:24;95462.78;;;3.35;72.60
21395;BME280;10858;42.714;23.180;2023-01-25T06:15:54;95466.19;;;2.97;73.38
21395;BME280;10858;42.714;23.180;2023-01-25T06:18:23;95474.25;;;2.92;74.20
21395;BME280;10858;42.714;23.180;2023-01-25T06:20:50;95472.97;;;3.02;73.74
21395;BME280;10858;42.714;23.180;2023-01-25T06:23:16;95467.78;;;3.21;73.34
21395;BME280;10858;42.714;23.180;2023-01-25T06:25:43;95468.34;;;3.07;73.10
21395;BME280;10858;42.714;23.180;2023-01-25T06:28:09;95469.13;;;2.89;74.52
21395;BME280;10858;42.714;23.180;2023-01-25T06:30:35;95461.44;;;3.06;74.11
21395;BME280;10858;42.714;23.180;2023-01-25T06:33:02;95459.72;;;3.05;73.81
21395;BME280;10858;42.714;23.180;2023-01-25T06:35:30;95461.38;;;3.28;73.38
21395;BME280;10858;42.714;23.180;2023-01-25T06:37:57;95465.09;;;3.42;73.14
21395;BME280;10858;42.714;23.180;2023-01-25T06:40:24;95459.91;;;3.21;73.46
21395;BME280;10858;42.714;23.180;2023-01-25T06:42:50;95459.34;;;3.14;73.59
21395;BME280;10858;42.714;23.180;2023-01-25T06:45:17;95461.53;;;3.03;74.04
21395;BME280;10858;42.714;23.180;2023-01-25T06:47:43;95455.25;;;3.07;74.46
21395;BME280;10858;42.714;23.180;2023-01-25T06:50:11;95459.97;;;3.19;73.83
21395;BME280;10858;42.714;23.180;2023-01-25T06:52:38;95461.16;;;3.53;73.08
21395;BME280;10858;42.714;23.180;2023-01-25T06:55:05;95467.56;;;3.45;72.86
21395;BME280;10858;42.714;23.180;2023-01-25T06:57:33;95464.84;;;3.08;72.69
21395;BME280;10858;42.714;23.180;2023-01-25T07:00:00;95452.38;;;3.13;73.43
21395;BME280;10858;42.714;23.180;2023-01-25T07:02:26;95462.66;;;2.98;73.82
21395;BME280;10858;42.714;23.180;2023-01-25T07:04:52;95463.97;;;3.08;73.40
21395;BME280;10858;42.714;23.180;2023-01-25T07:07:18;95457.50;;;3.16;73.54
21395;BME280;10858;42.714;23.180;2023-01-25T07:09:44;95455.06;;;3.32;72.52
21395;BME280;10858;42.714;23.180;2023-01-25T07:12:11;95457.50;;;3.16;73.45
21395;BME280;10858;42.714;23.180;2023-01-25T07:14:37;95456.97;;;3.28;73.10
21395;BME280;10858;42.714;23.180;2023-01-25T07:17:03;95456.47;;;3.20;73.45
21395;BME280;10858;42.714;23.180;2023-01-25T07:19:29;95454.81;;;3.18;72.92
21395;BME280;10858;42.714;23.180;2023-01-25T07:21:56;95454.13;;;3.13;73.33
21395;BME280;10858;42.714;23.180;2023-01-25T07:24:22;95463.47;;;3.40;73.42
21395;BME280;10858;42.714;23.180;2023-01-25T07:26:51;95463.13;;;3.47;72.34
21395;BME280;10858;42.714;23.180;2023-01-25T07:29:18;95468.63;;;3.21;72.96
21395;BME280;10858;42.714;23.180;2023-01-25T07:31:44;95471.25;;;3.21;74.05
21395;BME280;10858;42.714;23.180;2023-01-25T07:34:11;95470.03;;;3.30;73.38
21395;BME280;10858;42.714;23.180;2023-01-25T07:36:39;95476.91;;;3.53;72.89
21395;BME280;10858;42.714;23.180;2023-01-25T07:39:05;95483.66;;;3.58;72.14
21395;BME280;10858;42.714;23.180;2023-01-25T07:41:35;95485.94;;;3.45;72.52
21395;BME280;10858;42.714;23.180;2023-01-25T07:44:01;95481.13;;;3.55;72.44
21395;BME280;10858;42.714;23.180;2023-01-25T07:46:28;95489.50;;;3.44;72.67
21395;BME280;10858;42.714;23.180;2023-01-25T07:48:54;95485.94;;;3.45;72.75
21395;BME280;10858;42.714;23.180;2023-01-25T07:51:22;95479.28;;;3.38;73.35
21395;BME280;10858;42.714;23.180;2023-01-25T07:53:56;95478.47;;;3.57;72.97
21395;BME280;10858;42.714;23.180;2023-01-25T07:56:25;95472.97;;;3.63;72.73
21395;BME280;10858;42.714;23.180;2023-01-25T07:58:56;95470.09;;;3.67;72.37
21395;BME280;10858;42.714;23.180;2023-01-25T08:01:24;95475.06;;;3.55;72.60
21395;BME280;10858;42.714;23.180;2023-01-25T08:03:51;95479.19;;;3.40;72.88
21395;BME280;10858;42.714;23.180;2023-01-25T08:06:26;95473.50;;;3.51;72.94
21395;BME280;10858;42.714;23.180;2023-01-25T08:08:56;95474.47;;;3.48;73.30
21395;BME280;10858;42.714;23.180;2023-01-25T08:11:26;95470.91;;;3.29;74.22
21395;BME280;10858;42.714;23.180;2023-01-25T08:13:52;95470.41;;;3.21;74.19
21395;BME280;10858;42.714;23.180;2023-01-25T08:16:22;95471.41;;;3.38;73.20
21395;BME280;10858;42.714;23.180;2023-01-25T08:18:50;95474.38;;;3.70;73.16
21395;BME280;10858;42.714;23.180;2023-01-25T08:21:17;95467.38;;;3.70;72.24
21395;BME280;10858;42.714;23.180;2023-01-25T08:23:44;95464.53;;;3.93;71.67
21395;BME280;10858;42.714;23.180;2023-01-25T08:26:12;95469.59;;;3.98;70.83
21395;BME280;10858;42.714;23.180;2023-01-25T08:28:38;95469.66;;;3.58;71.96
21395;BME280;10858;42.714;23.180;2023-01-25T08:31:10;95463.75;;;3.73;73.06
21395;BME280;10858;42.714;23.180;2023-01-25T08:33:37;95464.91;;;3.86;72.03
21395;BME280;10858;42.714;23.180;2023-01-25T08:36:05;95465.41;;;3.94;71.86
21395;BME280;10858;42.714;23.180;2023-01-25T08:38:32;95464.28;;;4.18;72.00
21395;BME280;10858;42.714;23.180;2023-01-25T08:41:25;95466.34;;;4.11;72.11
21395;BME280;10858;42.714;23.180;2023-01-25T08:43:53;95460.63;;;3.65;73.05
21395;BME280;10858;42.714;23.180;2023-01-25T08:46:21;95461.13;;;3.73;74.02
21395;BME280;10858;42.714;23.180;2023-01-25T08:48:47;95462.44;;;3.83;73.65
21395;BME280;10858;42.714;23.180;2023-01-25T08:51:15;95459.81;;;3.83;74.39
21395;BME280;10858;42.714;23.180;2023-01-25T08:53:42;95467.31;;;4.46;73.50
21395;BME280;10858;42.714;23.180;2023-01-25T08:56:13;95460.41;;;4.62;72.01
21395;BME280;10858;42.714;23.180;2023-01-25T08:58:42;95458.47;;;4.30;71.83
21395;BME280;10858;42.714;23.180;2023-01-25T09:01:10;95451.56;;;4.27;72.48
21395;BME280;10858;42.714;23.180;2023-01-25T09:03:48;95460.09;;;3.95;74.41
21395;BME280;10858;42.714;23.180;2023-01-25T09:06:15;95460.88;;;4.35;73.99
21395;BME280;10858;42.714;23.180;2023-01-25T09:08:41;95462.94;;;4.09;73.93
21395;BME280;10858;42.714;23.180;2023-01-25T09:11:10;95468.31;;;3.88;74.44
21395;BME280;10858;42.714;23.180;2023-01-25T09:13:37;95458.66;;;3.88;74.43
21395;BME280;10858;42.714;23.180;2023-01-25T09:16:09;95460.50;;;3.86;74.07
21395;BME280;10858;42.714;23.180;2023-01-25T09:18:37;95452.72;;;4.03;74.22
21395;BME280;10858;42.714;23.180;2023-01-25T09:21:08;95455.09;;;3.71;74.49
21395;BME280;10858;42.714;23.180;2023-01-25T09:23:35;95447.31;;;3.88;74.84
21395;BME280;10858;42.714;23.180;2023-01-25T09:26:02;95445.19;;;4.14;74.18
21395;BME280;10858;42.714;23.180;2023-01-25T09:28:29;95445.75;;;4.21;73.94
21395;BME280;10858;42.714;23.180;2023-01-25T09:31:00;95440.00;;;4.13;74.41
21395;BME280;10858;42.714;23.180;2023-01-25T09:33:28;95441.78;;;3.94;74.44
21395;BME280;10858;42.714;23.180;2023-01-25T09:35:55;95430.91;;;4.01;74.85
21395;BME280;10858;42.714;23.180;2023-01-25T09:38:22;95434.69;;;4.14;74.66
21395;BME280;10858;42.714;23.180;2023-01-25T09:49:02;95415.66;;;4.28;73.73
21395;BME280;10858;42.714;23.180;2023-01-25T09:54:40;95405.66;;;4.17;73.64
21395;BME280;10858;42.714;23.180;2023-01-25T09:59:53;95394.03;;;4.59;73.00
21395;BME280;10858;42.714;23.180;2023-01-25T10:02:39;95391.75;;;4.51;73.35
21395;BME280;10858;42.714;23.180;2023-01-25T10:05:18;95385.50;;;4.37;74.17
21395;BME280;10858;42.714;23.180;2023-01-25T10:10:39;95382.09;;;4.52;73.07
21395;BME280;10858;42.714;23.180;2023-01-25T10:13:11;95381.97;;;4.55;74.08
21395;BME280;10858;42.714;23.180;2023-01-25T10:15:47;95371.91;;;4.46;74.19
21395;BME280;10858;42.714;23.180;2023-01-25T10:19:03;95367.59;;;4.62;74.37
21395;BME280;10858;42.714;23.180;2023-01-25T10:29:55;95354.44;;;4.09;76.01
21395;BME280;10858;42.714;23.180;2023-01-25T10:32:27;95359.09;;;4.21;74.47
21395;BME280;10858;42.714;23.180;2023-01-25T10:35:01;95354.09;;;4.33;75.33
21395;BME280;10858;42.714;23.180;2023-01-25T10:37:35;95347.72;;;4.56;75.09
21395;BME280;10858;42.714;23.180;2023-01-25T10:40:21;95340.00;;;4.17;74.68
21395;BME280;10858;42.714;23.180;2023-01-25T10:45:17;95327.56;;;4.57;73.68
21395;BME280;10858;42.714;23.180;2023-01-25T10:47:47;95333.81;;;4.71;73.10
21395;BME280;10858;42.714;23.180;2023-01-25T10:53:36;95322.44;;;5.38;72.29
21395;BME280;10858;42.714;23.180;2023-01-25T10:58:37;95319.59;;;4.75;71.83
21395;BME280;10858;42.714;23.180;2023-01-25T11:01:06;95320.00;;;4.85;72.88
21395;BME280;10858;42.714;23.180;2023-01-25T11:03:41;95318.97;;;5.04;72.35
21395;BME280;10858;42.714;23.180;2023-01-25T11:06:10;95319.91;;;5.36;70.75
21395;BME280;10858;42.714;23.180;2023-01-25T11:08:38;95320.31;;;5.29;70.28
21395;BME280;10858;42.714;23.180;2023-01-25T11:13:53;95299.81;;;5.18;70.21
21395;BME280;10858;42.714;23.180;2023-01-25T11:16:31;95293.25;;;5.27;70.41
21395;BME280;10858;42.714;23.180;2023-01-25T11:18:59;95290.50;;;5.76;69.70
21395;BME280;10858;42.714;23.180;2023-01-25T11:21:29;95285.03;;;5.79;67.36
21395;BME280;10858;42.714;23.180;2023-01-25T11:26:35;95283.09;;;5.52;68.32
21395;BME280;10858;42.714;23.180;2023-01-25T11:29:22;95291.38;;;5.29;68.73
21395;BME280;10858;42.714;23.180;2023-01-25T11:31:52;95288.09;;;5.41;69.04
21395;BME280;10858;42.714;23.180;2023-01-25T11:34:20;95278.78;;;5.66;68.24
21395;BME280;10858;42.714;23.180;2023-01-25T11:45:27;95254.91;;;5.54;68.50
21395;BME280;10858;42.714;23.180;2023-01-25T11:48:21;95243.03;;;5.93;67.24
21395;BME280;10858;42.714;23.180;2023-01-25T11:50:57;95244.56;;;5.66;66.79
21395;BME280;10858;42.714;23.180;2023-01-25T11:56:25;95242.84;;;5.50;67.20
21395;BME280;10858;42.714;23.180;2023-01-25T11:59:10;95235.69;;;5.21;68.30
21395;BME280;10858;42.714;23.180;2023-01-25T12:07:38;95229.59;;;4.87;69.11
21395;BME280;10858;42.714;23.180;2023-01-25T12:13:04;95228.41;;;4.60;70.54
21395;BME280;10858;42.714;23.180;2023-01-25T12:29:59;95214.91;;;4.83;69.30
21395;BME280;10858;42.714;23.180;2023-01-25T12:32:30;95206.00;;;4.70;69.90
21395;BME280;10858;42.714;23.180;2023-01-25T12:37:48;95206.75;;;4.72;69.67
21395;BME280;10858;42.714;23.180;2023-01-25T12:41:00;95198.56;;;4.78;68.58
21395;BME280;10858;42.714;23.180;2023-01-25T12:45:56;95186.66;;;5.19;68.45
21395;BME280;10858;42.714;23.180;2023-01-25T12:48:32;95191.38;;;4.97;68.22
21395;BME280;10858;42.714;23.180;2023-01-25T12:51:01;95192.63;;;4.75;68.40
21395;BME280;10858;42.714;23.180;2023-01-25T12:53:41;95189.56;;;4.82;68.37
21395;BME280;10858;42.714;23.180;2023-01-25T12:56:39;95181.81;;;4.64;69.64
21395;BME280;10858;42.714;23.180;2023-01-25T12:59:31;95187.41;;;4.73;70.11
21395;BME280;10858;42.714;23.180;2023-01-25T13:10:35;95164.38;;;4.78;69.20
21395;BME280;10858;42.714;23.180;2023-01-25T13:13:20;95170.00;;;4.88;70.03
21395;BME280;10858;42.714;23.180;2023-01-25T13:15:47;95164.84;;;4.69;70.13
21395;BME280;10858;42.714;23.180;2023-01-25T13:21:00;95161.75;;;4.78;68.67
21395;BME280;10858;42.714;23.180;2023-01-25T13:23:37;95157.84;;;4.85;69.92
21395;BME280;10858;42.714;23.180;2023-01-25T13:28:59;95162.09;;;4.72;69.59
21395;BME280;10858;42.714;23.180;2023-01-25T13:37:30;95169.75;;;4.60;69.87
21395;BME280;10858;42.714;23.180;2023-01-25T13:40:35;95164.81;;;4.86;69.25
21395;BME280;10858;42.714;23.180;2023-01-25T13:43:18;95174.78;;;4.97;67.65
21395;BME280;10858;42.714;23.180;2023-01-25T13:45:48;95173.25;;;4.43;68.90
21395;BME280;10858;42.714;23.180;2023-01-25T13:48:21;95178.09;;;4.18;69.82
21395;BME280;10858;42.714;23.180;2023-01-25T13:53:24;95178.63;;;4.57;69.17
21395;BME280;10858;42.714;23.180;2023-01-25T13:55:56;95185.34;;;4.30;69.69
21395;BME280;10858;42.714;23.180;2023-01-25T14:00:54;95185.97;;;4.18;70.33
21395;BME280;10858;42.714;23.180;2023-01-25T14:03:28;95180.41;;;4.24;69.66
21395;BME280;10858;42.714;23.180;2023-01-25T14:05:57;95175.44;;;4.01;69.97
21395;BME280;10858;42.714;23.180;2023-01-25T14:08:24;95179.00;;;4.17;70.39
21395;BME280;10858;42.714;23.180;2023-01-25T14:10:52;95179.78;;;4.36;69.74
21395;BME280;10858;42.714;23.180;2023-01-25T14:13:18;95173.66;;;4.36;70.28
21395;BME280;10858;42.714;23.180;2023-01-25T14:15:59;95181.63;;;4.34;70.43
21395;BME280;10858;42.714;23.180;2023-01-25T14:18:37;95174.75;;;4.31;71.00
21395;BME280;10858;42.714;23.180;2023-01-25T14:21:18;95172.84;;;4.18;70.95
21395;BME280;10858;42.714;23.180;2023-01-25T14:23:45;95171.75;;;4.05;71.54
21395;BME280;10858;42.714;23.180;2023-01-25T14:26:21;95161.41;;;4.02;71.64
21395;BME280;10858;42.714;23.180;2023-01-25T14:28:52;95172.66;;;3.87;71.78
21395;BME280;10858;42.714;23.180;2023-01-25T14:31:25;95171.13;;;4.17;71.89
21395;BME280;10858;42.714;23.180;2023-01-25T14:33:53;95161.44;;;4.52;71.32
21395;BME280;10858;42.714;23.180;2023-01-25T14:36:25;95156.13;;;4.36;71.12
21395;BME280;10858;42.714;23.180;2023-01-25T14:38:52;95153.28;;;4.41;71.84
21395;BME280;10858;42.714;23.180;2023-01-25T14:41:28;95152.88;;;4.31;71.89
21395;BME280;10858;42.714;23.180;2023-01-25T14:43:56;95151.28;;;4.11;72.28
21395;BME280;10858;42.714;23.180;2023-01-25T14:48:51;95151.75;;;3.85;73.04
21395;BME280;10858;42.714;23.180;2023-01-25T14:51:30;95153.91;;;3.60;73.54
21395;BME280;10858;42.714;23.180;2023-01-25T14:54:02;95147.66;;;3.63;74.15
21395;BME280;10858;42.714;23.180;2023-01-25T14:58:58;95158.88;;;3.30;75.10
21395;BME280;10858;42.714;23.180;2023-01-25T15:01:37;95156.31;;;3.65;74.44
21395;BME280;10858;42.714;23.180;2023-01-25T15:04:11;95161.47;;;3.30;75.02
21395;BME280;10858;42.714;23.180;2023-01-25T15:06:49;95171.72;;;3.35;75.45
21395;BME280;10858;42.714;23.180;2023-01-25T15:09:58;95177.47;;;3.43;75.53
21395;BME280;10858;42.714;23.180;2023-01-25T15:12:27;95182.09;;;3.38;75.33
21395;BME280;10858;42.714;23.180;2023-01-25T15:14:56;95191.41;;;3.26;76.01